Time;durP1;ratioP1;P1;durP2;ratioP2;P2;SDS_P1;SDS_P2;PMS_P1;PMS_P2;Temp;Humidity;BMP_temperature;BMP_pressure;BME280_temperature;BME280_humidity;BME280_pressure;Samples;Min_cycle;Max_cycle;Signal;HPM_P1;HPM_P2
2021/06/29 00:00:29;;;;;;;9.67;8.83;;;23.00;99.90;;;;;;5035366;28;20508;-79
2021/06/29 00:03:01;;;;;;;10.00;9.10;;;23.00;99.90;;;;;;5035005;28;20473;-79
2021/06/29 00:05:29;;;;;;;10.80;9.90;;;22.90;99.90;;;;;;5035066;28;20467;-79
2021/06/29 00:07:56;;;;;;;9.60;8.80;;;22.90;99.90;;;;;;5035469;28;20448;-79
2021/06/29 00:10:23;;;;;;;9.90;8.93;;;22.90;99.90;;;;;;5035149;28;20452;-79
2021/06/29 00:12:50;;;;;;;9.70;8.87;;;22.90;99.90;;;;;;5035498;28;20451;-79
2021/06/29 00:15:16;;;;;;;10.43;9.53;;;22.90;99.90;;;;;;5034603;28;20514;-79
2021/06/29 00:17:43;;;;;;;10.03;9.30;;;23.00;99.90;;;;;;5034929;28;20447;-79
2021/06/29 00:20:10;;;;;;;9.30;8.60;;;23.00;99.90;;;;;;5035137;28;21025;-79
2021/06/29 00:22:38;;;;;;;9.73;8.70;;;22.90;99.90;;;;;;5035212;28;20481;-79
2021/06/29 00:25:05;;;;;;;10.20;9.30;;;22.90;99.90;;;;;;5035073;28;20518;-79
2021/06/29 00:27:32;;;;;;;9.33;8.53;;;22.90;99.90;;;;;;5035106;28;20483;-79
2021/06/29 00:29:58;;;;;;;8.57;7.87;;;22.80;99.90;;;;;;5035137;28;20444;-79
2021/06/29 00:32:25;;;;;;;10.03;9.23;;;22.80;99.90;;;;;;5034817;28;20442;-79
2021/06/29 00:34:52;;;;;;;10.40;9.60;;;22.80;99.90;;;;;;5035520;28;20506;-79
2021/06/29 00:37:18;;;;;;;9.90;8.90;;;22.70;99.90;;;;;;5038741;28;20456;-79
2021/06/29 00:39:46;;;;;;;10.97;9.87;;;22.70;99.90;;;;;;5039060;28;20481;-79
2021/06/29 00:42:13;;;;;;;9.63;8.80;;;22.70;99.90;;;;;;5038688;28;20487;-79
2021/06/29 00:44:39;;;;;;;10.63;9.63;;;22.70;99.90;;;;;;5043905;28;20873;-78
2021/06/29 00:47:10;;;;;;;11.07;9.97;;;22.60;99.90;;;;;;5043866;28;20468;-78
2021/06/29 00:49:36;;;;;;;10.27;9.37;;;22.60;99.90;;;;;;5044916;28;20450;-78
2021/06/29 00:52:04;;;;;;;10.67;9.70;;;22.60;99.90;;;;;;5040202;28;20447;-78
2021/06/29 00:54:31;;;;;;;10.77;9.60;;;22.50;99.90;;;;;;5042982;28;20467;-78
2021/06/29 00:57:00;;;;;;;10.93;9.93;;;22.50;99.90;;;;;;5042596;28;20494;-78
2021/06/29 00:59:27;;;;;;;10.83;9.60;;;22.50;99.90;;;;;;5043444;28;20448;-78
2021/06/29 01:01:53;;;;;;;10.53;9.73;;;22.50;99.90;;;;;;5038194;28;20529;-79
2021/06/29 01:04:20;;;;;;;10.77;9.87;;;22.40;99.90;;;;;;5038352;28;20462;-78
2021/06/29 01:06:48;;;;;;;10.23;9.43;;;22.40;99.90;;;;;;5038040;28;20471;-79
2021/06/29 01:09:15;;;;;;;10.57;9.77;;;22.40;99.90;;;;;;5038320;28;20545;-79
2021/06/29 01:11:41;;;;;;;10.17;9.30;;;22.30;99.90;;;;;;5037975;28;20452;-79
2021/06/29 01:14:14;;;;;;;10.97;9.97;;;22.40;99.90;;;;;;5038502;28;20914;-79
2021/06/29 01:16:41;;;;;;;11.53;10.63;;;22.40;99.90;;;;;;5038410;28;20434;-79
2021/06/29 01:19:08;;;;;;;11.03;10.23;;;22.40;99.90;;;;;;5038576;28;20507;-79
2021/06/29 01:21:38;;;;;;;10.00;9.27;;;22.40;99.90;;;;;;5038264;28;20479;-78
2021/06/29 01:24:08;;;;;;;10.20;9.50;;;22.40;99.90;;;;;;5039890;28;20492;-78
2021/06/29 01:26:38;;;;;;;10.83;10.03;;;22.50;99.90;;;;;;5041545;28;20824;-78
2021/06/29 01:29:06;;;;;;;12.77;11.47;;;22.40;99.90;;;;;;5042446;28;20804;-78
2021/06/29 01:31:33;;;;;;;10.93;9.93;;;22.40;99.90;;;;;;5043012;28;20496;-78
2021/06/29 01:34:00;;;;;;;14.10;12.70;;;22.40;99.90;;;;;;5038764;28;20469;-78
2021/06/29 01:36:32;;;;;;;12.20;10.93;;;22.20;99.90;;;;;;5038521;28;20861;-79
2021/06/29 01:39:01;;;;;;;16.13;10.03;;;22.10;99.90;;;;;;5037492;28;20478;-79
2021/06/29 01:41:28;;;;;;;11.63;10.70;;;22.20;99.90;;;;;;5037555;28;20490;-78
2021/06/29 01:43:56;;;;;;;11.07;10.17;;;22.20;99.90;;;;;;5037581;28;20557;-79
2021/06/29 01:46:24;;;;;;;12.07;10.70;;;22.10;99.90;;;;;;5037118;28;20478;-79
2021/06/29 01:48:54;;;;;;;11.17;10.20;;;22.10;99.90;;;;;;5038065;28;20457;-78
2021/06/29 01:51:21;;;;;;;11.30;10.30;;;22.10;99.90;;;;;;5036777;28;20442;-78
2021/06/29 01:53:50;;;;;;;11.47;10.50;;;22.10;99.90;;;;;;5038084;28;20466;-79
2021/06/29 01:56:23;;;;;;;12.07;10.87;;;22.10;99.90;;;;;;5037887;28;20447;-79
2021/06/29 01:58:52;;;;;;;12.20;11.17;;;22.10;99.90;;;;;;5037357;28;20473;-79
2021/06/29 02:01:19;;;;;;;10.63;9.73;;;22.20;99.90;;;;;;5037419;28;20540;-79
2021/06/29 02:03:46;;;;;;;11.00;10.10;;;22.20;99.90;;;;;;5038226;28;20462;-78
2021/06/29 02:06:14;;;;;;;12.20;11.10;;;22.20;99.90;;;;;;5040882;28;20521;-78
2021/06/29 02:08:41;;;;;;;13.37;12.33;;;22.20;99.90;;;;;;5042676;28;20457;-78
2021/06/29 02:11:07;;;;;;;12.47;11.47;;;22.20;99.90;;;;;;5041312;28;20474;-78
2021/06/29 02:13:36;;;;;;;11.70;10.70;;;21.80;99.90;;;;;;5042976;28;20531;-78
2021/06/29 02:16:02;;;;;;;12.20;11.30;;;22.10;99.90;;;;;;5043270;28;20427;-78
2021/06/29 02:18:29;;;;;;;11.73;10.73;;;22.10;99.90;;;;;;5042867;28;20532;-78
2021/06/29 02:20:56;;;;;;;11.80;10.90;;;22.00;99.90;;;;;;5042984;28;20494;-78
2021/06/29 02:23:23;;;;;;;12.20;11.10;;;22.00;99.90;;;;;;5042970;28;20984;-77
2021/06/29 02:25:50;;;;;;;11.33;10.43;;;22.00;99.90;;;;;;5043634;28;20453;-78
2021/06/29 02:28:18;;;;;;;11.83;10.90;;;22.00;99.90;;;;;;5040861;28;20450;-78
2021/06/29 02:30:46;;;;;;;13.10;12.03;;;22.00;99.90;;;;;;5038451;28;20454;-79
2021/06/29 02:33:13;;;;;;;11.47;10.67;;;22.00;99.90;;;;;;5037458;28;20501;-79
2021/06/29 02:35:40;;;;;;;11.13;10.33;;;21.90;99.90;;;;;;5037174;28;20521;-78
2021/06/29 02:38:06;;;;;;;11.43;10.53;;;22.00;99.90;;;;;;5036636;28;20545;-79
2021/06/29 02:40:34;;;;;;;13.03;11.47;;;22.10;99.90;;;;;;5036998;28;21031;-79
2021/06/29 02:43:00;;;;;;;11.50;10.50;;;22.00;99.90;;;;;;5036956;28;20914;-78
2021/06/29 02:45:27;;;;;;;12.50;10.80;;;22.10;99.90;;;;;;5038902;28;20467;-79
2021/06/29 02:47:57;;;;;;;10.87;10.07;;;22.10;99.90;;;;;;5036108;28;20450;-79
2021/06/29 02:50:23;;;;;;;10.20;9.30;;;22.10;99.90;;;;;;5036465;28;20447;-79
2021/06/29 02:52:50;;;;;;;11.53;10.53;;;22.00;99.90;;;;;;5038768;28;20851;-78
2021/06/29 02:55:17;;;;;;;11.27;10.37;;;22.10;99.90;;;;;;5042487;28;20467;-78
2021/06/29 02:57:45;;;;;;;10.50;9.70;;;22.10;99.90;;;;;;5040892;28;20896;-78
2021/06/29 03:00:14;;;;;;;11.70;10.50;;;22.10;99.90;;;;;;5040239;28;20447;-78
2021/06/29 03:02:41;;;;;;;11.60;10.50;;;22.10;99.90;;;;;;5039159;28;20977;-79
2021/06/29 03:05:10;;;;;;;10.33;9.47;;;22.20;99.90;;;;;;5038979;28;21013;-78
2021/06/29 03:07:37;;;;;;;11.50;10.50;;;22.20;99.90;;;;;;5039431;28;20516;-78
2021/06/29 03:10:05;;;;;;;12.23;11.30;;;22.20;99.90;;;;;;5037049;28;20443;-79
2021/06/29 03:12:31;;;;;;;11.80;10.70;;;22.20;99.90;;;;;;5036378;28;20565;-79
2021/06/29 03:15:00;;;;;;;11.40;10.40;;;22.10;99.90;;;;;;5036144;28;20536;-79
2021/06/29 03:17:27;;;;;;;11.23;10.33;;;22.10;99.90;;;;;;5036501;28;20456;-79
2021/06/29 03:19:54;;;;;;;14.00;11.70;;;22.10;99.90;;;;;;5035643;28;20493;-78
2021/06/29 03:22:22;;;;;;;11.90;10.90;;;22.10;99.90;;;;;;5035737;28;20482;-79
2021/06/29 03:24:50;;;;;;;12.30;10.90;;;22.10;99.90;;;;;;5035233;28;20474;-79
2021/06/29 03:27:18;;;;;;;12.30;11.20;;;22.10;99.90;;;;;;5035946;28;20478;-79
2021/06/29 03:29:44;;;;;;;15.30;10.80;;;22.10;99.90;;;;;;5035699;28;20577;-79
2021/06/29 03:32:11;;;;;;;12.70;11.60;;;22.00;99.90;;;;;;5035662;28;20443;-79
2021/06/29 03:34:38;;;;;;;12.63;11.47;;;22.00;99.90;;;;;;5035274;28;20470;-79
2021/06/29 03:37:06;;;;;;;13.57;12.47;;;22.00;99.90;;;;;;5034869;28;20462;-79
2021/06/29 03:39:55;;;;;;;12.10;11.00;;;22.00;99.90;;;;;;5017917;28;20801;-79
2021/06/29 03:42:21;;;;;;;12.40;11.20;;;22.00;99.90;;;;;;5035507;28;20590;-79
2021/06/29 03:44:48;;;;;;;12.17;11.10;;;22.10;99.90;;;;;;5034933;28;20529;-79
2021/06/29 03:47:15;;;;;;;11.57;10.67;;;22.10;99.90;;;;;;5038810;28;20462;-78
2021/06/29 03:49:41;;;;;;;11.03;9.93;;;22.10;99.90;;;;;;5038401;28;20469;-78
2021/06/29 03:52:08;;;;;;;13.87;12.47;;;22.20;99.90;;;;;;5039190;28;20811;-78
2021/06/29 03:54:34;;;;;;;12.90;11.80;;;22.20;99.90;;;;;;5037643;28;20483;-78
2021/06/29 03:57:02;;;;;;;11.77;10.40;;;22.20;99.90;;;;;;5036144;28;20478;-79
2021/06/29 03:59:29;;;;;;;12.10;11.10;;;22.20;99.90;;;;;;5035531;28;20930;-78
2021/06/29 04:01:56;;;;;;;13.10;12.07;;;22.20;99.90;;;;;;5034955;28;20476;-78
2021/06/29 04:04:22;;;;;;;11.50;10.50;;;22.20;99.90;;;;;;5034318;28;20530;-78
2021/06/29 04:06:49;;;;;;;12.03;11.00;;;22.20;99.90;;;;;;5035000;28;20448;-78
2021/06/29 04:09:15;;;;;;;13.07;11.77;;;22.20;99.90;;;;;;5035013;28;20478;-78
2021/06/29 04:11:42;;;;;;;10.13;9.33;;;22.20;99.90;;;;;;5037612;28;20471;-78
2021/06/29 04:14:09;;;;;;;13.23;12.10;;;22.40;99.90;;;;;;5065101;22;21582;-81
2021/06/29 04:16:36;;;;;;;13.20;11.90;;;22.20;99.90;;;;;;5048305;28;20438;-81
2021/06/29 04:19:03;;;;;;;13.07;11.77;;;22.20;99.90;;;;;;5049030;28;20447;-82
2021/06/29 04:21:29;;;;;;;17.17;13.83;;;22.20;99.90;;;;;;5046330;28;20538;-81
2021/06/29 04:24:05;;;;;;;12.43;11.23;;;22.50;99.90;;;;;;5047340;28;20452;-82
2021/06/29 04:26:31;;;;;;;13.30;12.00;;;22.30;99.90;;;;;;5048237;28;20427;-81
2021/06/29 04:28:58;;;;;;;12.33;11.33;;;22.30;99.90;;;;;;5048435;28;20447;-81
2021/06/29 04:31:27;;;;;;;11.40;10.50;;;22.30;99.90;;;;;;5048387;28;20444;-81
2021/06/29 04:33:55;;;;;;;13.30;12.03;;;22.30;99.90;;;;;;5048975;28;20446;-81
2021/06/29 04:36:22;;;;;;;13.23;11.93;;;;;;;;;;5048126;28;20505;-82
2021/06/29 04:38:49;;;;;;;12.90;11.80;;;22.20;99.90;;;;;;5054540;28;20926;-82
2021/06/29 04:41:15;;;;;;;14.20;12.80;;;22.20;99.90;;;;;;5051561;28;20443;-81
2021/06/29 04:43:43;;;;;;;12.63;11.40;;;22.30;99.90;;;;;;5049860;28;20444;-81
2021/06/29 04:46:10;;;;;;;13.47;12.20;;;22.30;99.90;;;;;;5049169;28;20833;-82
2021/06/29 04:48:39;;;;;;;13.30;12.10;;;22.30;99.90;;;;;;5049639;28;20482;-81
2021/06/29 04:51:06;;;;;;;12.70;11.70;;;22.20;99.90;;;;;;5049074;28;20855;-82
2021/06/29 04:53:34;;;;;;;12.33;11.20;;;22.20;99.90;;;;;;5047232;28;20450;-80
2021/06/29 04:56:00;;;;;;;13.40;12.20;;;22.20;99.90;;;;;;5046638;28;20467;-81
2021/06/29 04:58:27;;;;;;;13.47;12.27;;;22.20;99.90;;;;;;5048134;28;20507;-82
2021/06/29 05:00:54;;;;;;;13.30;12.00;;;22.20;99.90;;;;;;5047648;28;20442;-81
2021/06/29 05:03:20;;;;;;;11.90;10.80;;;22.20;99.90;;;;;;5045567;28;20482;-81
2021/06/29 05:05:48;;;;;;;16.70;12.87;;;22.20;99.90;;;;;;5049322;28;20545;-81
2021/06/29 05:08:15;;;;;;;14.13;12.00;;;22.30;99.90;;;;;;5051481;28;20453;-82
2021/06/29 05:10:42;;;;;;;12.30;11.20;;;22.30;99.90;;;;;;5048979;28;20457;-82
2021/06/29 05:13:08;;;;;;;11.57;10.63;;;22.40;99.90;;;;;;5048107;28;20501;-82
2021/06/29 05:15:35;;;;;;;12.10;11.00;;;22.40;99.90;;;;;;5048059;28;20474;-82
2021/06/29 05:18:01;;;;;;;12.87;11.73;;;22.50;99.90;;;;;;5047137;28;20462;-80
2021/06/29 05:20:28;;;;;;;14.97;11.80;;;22.60;99.90;;;;;;5046819;28;20442;-81
2021/06/29 05:22:56;;;;;;;18.63;12.77;;;22.70;99.90;;;;;;5050678;28;20510;-83
2021/06/29 05:25:23;;;;;;;12.80;11.80;;;22.70;99.90;;;;;;5050789;28;20471;-82
2021/06/29 05:27:50;;;;;;;12.93;11.73;;;22.70;99.90;;;;;;5050711;28;20451;-81
2021/06/29 05:30:18;;;;;;;13.23;11.93;;;22.80;99.90;;;;;;5051007;28;21023;-82
2021/06/29 05:32:44;;;;;;;13.20;12.00;;;22.90;99.90;;;;;;5050774;28;20435;-81
2021/06/29 05:35:12;;;;;;;12.50;11.50;;;22.90;99.90;;;;;;5051844;28;20467;-81
2021/06/29 05:37:39;;;;;;;12.90;11.90;;;22.90;99.90;;;;;;5052012;28;20470;-81
2021/06/29 05:40:08;;;;;;;12.70;11.60;;;22.90;99.90;;;;;;5052071;28;20446;-82
2021/06/29 05:42:35;;;;;;;14.10;12.93;;;22.90;99.90;;;;;;5050694;28;20506;-82
2021/06/29 05:45:01;;;;;;;12.60;11.50;;;22.90;99.90;;;;;;5051487;28;20464;-82
2021/06/29 05:47:28;;;;;;;11.80;10.80;;;22.90;99.90;;;;;;5052108;28;20458;-81
2021/06/29 05:49:55;;;;;;;12.90;11.70;;;23.00;99.90;;;;;;5052419;28;20462;-81
2021/06/29 05:52:22;;;;;;;13.83;12.63;;;23.00;99.90;;;;;;5052606;28;20450;-81
2021/06/29 05:54:48;;;;;;;15.63;14.33;;;23.00;99.90;;;;;;5050254;28;20518;-82
2021/06/29 05:57:16;;;;;;;15.73;13.17;;;22.90;99.90;;;;;;5040455;28;20448;-81
2021/06/29 05:59:43;;;;;;;15.47;13.77;;;23.00;99.90;;;;;;5040253;28;20514;-82
2021/06/29 06:02:11;;;;;;;12.77;11.67;;;23.00;99.90;;;;;;5039335;28;20480;-81
2021/06/29 06:04:38;;;;;;;14.00;12.63;;;23.00;99.90;;;;;;5039551;28;20491;-83
2021/06/29 06:07:05;;;;;;;14.53;12.90;;;23.00;99.90;;;;;;5039689;28;20448;-82
2021/06/29 06:09:32;;;;;;;12.93;11.63;;;23.10;99.90;;;;;;5040000;28;20450;-82
2021/06/29 06:11:58;;;;;;;14.40;13.10;;;23.10;99.90;;;;;;5044231;28;20444;-81
2021/06/29 06:14:28;;;;;;;13.23;12.03;;;23.20;99.90;;;;;;5048627;28;20531;-81
2021/06/29 06:16:55;;;;;;;15.33;11.47;;;23.30;99.90;;;;;;5050627;28;20923;-82
2021/06/29 06:19:24;;;;;;;13.00;11.70;;;23.40;99.90;;;;;;5051637;28;20449;-81
2021/06/29 06:21:51;;;;;;;12.13;10.93;;;23.50;99.90;;;;;;5051147;28;20444;-81
2021/06/29 06:24:18;;;;;;;13.53;12.20;;;23.50;99.90;;;;;;5056103;28;20475;-81
2021/06/29 06:26:44;;;;;;;13.03;11.73;;;23.50;99.90;;;;;;5058049;28;20447;-82
2021/06/29 06:29:11;;;;;;;13.60;11.87;;;23.60;99.90;;;;;;5056227;28;20449;-81
2021/06/29 06:31:39;;;;;;;15.40;12.13;;;23.60;99.90;;;;;;5055685;28;20432;-83
2021/06/29 06:34:06;;;;;;;14.33;13.00;;;23.60;99.90;;;;;;5055085;28;20457;-82
2021/06/29 06:36:33;;;;;;;13.83;12.57;;;23.60;99.90;;;;;;5053007;28;20467;-82
2021/06/29 06:38:59;;;;;;;12.73;11.63;;;23.70;99.90;;;;;;5053106;28;20445;-81
2021/06/29 06:41:26;;;;;;;13.67;12.57;;;23.80;99.90;;;;;;5051686;28;20441;-80
2021/06/29 06:43:53;;;;;;;15.73;13.70;;;24.00;99.90;;;;;;5051857;28;20492;-80
2021/06/29 06:46:19;;;;;;;16.10;14.50;;;24.10;99.90;;;;;;5052086;28;20443;-81
2021/06/29 06:48:48;;;;;;;15.17;13.87;;;24.10;99.90;;;;;;5051783;28;20472;-81
2021/06/29 06:51:15;;;;;;;15.60;14.13;;;24.30;99.90;;;;;;5057024;28;20449;-81
2021/06/29 06:53:41;;;;;;;14.40;13.00;;;24.40;99.90;;;;;;5051576;28;20443;-80
2021/06/29 06:56:14;;;;;;;15.23;13.27;;;24.50;99.90;;;;;;5051121;28;20450;-80
2021/06/29 06:58:41;;;;;;;16.03;14.63;;;24.60;99.90;;;;;;5057449;28;20444;-80
2021/06/29 07:01:07;;;;;;;12.97;11.77;;;24.70;99.90;;;;;;5054312;28;20479;-79
2021/06/29 07:03:34;;;;;;;15.00;13.60;;;24.80;99.90;;;;;;5045950;28;20478;-79
2021/06/29 07:06:02;;;;;;;15.00;13.57;;;24.90;99.90;;;;;;5047331;28;20536;-79
2021/06/29 07:08:28;;;;;;;21.80;13.67;;;25.00;99.90;;;;;;5046271;28;20505;-79
2021/06/29 07:10:56;;;;;;;20.77;15.07;;;25.20;99.90;;;;;;5049564;28;20474;-78
2021/06/29 07:13:23;;;;;;;16.27;13.57;;;25.20;99.90;;;;;;5049922;28;20450;-78
2021/06/29 07:15:50;;;;;;;14.83;11.80;;;25.10;99.90;;;;;;5050109;28;20486;-79
2021/06/29 07:18:18;;;;;;;15.30;14.00;;;25.20;99.90;;;;;;5049526;28;20473;-79
2021/06/29 07:20:45;;;;;;;13.80;11.60;;;25.30;99.90;;;;;;5050733;28;20454;-79
2021/06/29 07:23:14;;;;;;;14.17;12.87;;;25.30;99.90;;;;;;5049809;28;20482;-79
2021/06/29 07:25:41;;;;;;;16.17;14.60;;;25.30;99.90;;;;;;5050526;28;20455;-79
2021/06/29 07:28:08;;;;;;;19.27;17.27;;;25.40;99.90;;;;;;5050673;28;20469;-79
2021/06/29 07:30:36;;;;;;;18.90;16.97;;;25.50;99.90;;;;;;5051656;28;20442;-79
2021/06/29 07:33:03;;;;;;;15.80;14.13;;;25.70;99.90;;;;;;5051272;28;20524;-79
2021/06/29 07:35:30;;;;;;;16.47;14.87;;;25.80;99.90;;;;;;5050316;28;20471;-80
2021/06/29 07:38:00;;;;;;;16.23;14.53;;;25.80;99.90;;;;;;5050554;28;20502;-79
2021/06/29 07:40:29;;;;;;;16.53;14.83;;;25.90;99.90;;;;;;5050287;28;20442;-79
2021/06/29 07:42:56;;;;;;;17.03;15.33;;;25.80;99.90;;;;;;5049761;28;20502;-79
2021/06/29 07:45:25;;;;;;;16.83;14.87;;;25.80;99.90;;;;;;5049466;28;20981;-79
2021/06/29 07:47:52;;;;;;;15.83;14.33;;;25.80;99.90;;;;;;5049997;28;20447;-79
2021/06/29 07:50:19;;;;;;;19.50;17.50;;;25.80;99.90;;;;;;5050956;28;20446;-79
2021/06/29 07:52:45;;;;;;;13.23;12.13;;;25.80;99.90;;;;;;5050183;28;20447;-79
2021/06/29 07:55:12;;;;;;;17.13;15.53;;;25.70;99.90;;;;;;5050122;28;20492;-79
2021/06/29 07:57:41;;;;;;;23.67;21.17;;;25.80;99.90;;;;;;5050211;28;20435;-80
2021/06/29 08:00:10;;;;;;;16.27;14.60;;;25.90;99.90;;;;;;5049192;28;20454;-79
2021/06/29 08:02:37;;;;;;;14.33;13.20;;;26.00;99.90;;;;;;5043827;28;20508;-80
2021/06/29 08:05:05;;;;;;;13.97;12.57;;;26.00;99.90;;;;;;5045255;28;20471;-80
2021/06/29 08:07:32;;;;;;;24.13;21.20;;;26.10;99.90;;;;;;5048893;28;20478;-79
2021/06/29 08:09:58;;;;;;;16.27;14.80;;;26.20;99.90;;;;;;5048840;28;20446;-80
2021/06/29 08:12:25;;;;;;;16.23;14.83;;;26.30;99.90;;;;;;5046713;28;20525;-81
2021/06/29 08:14:56;;;;;;;16.60;15.20;;;26.40;99.90;;;;;;5047795;28;20550;-80
2021/06/29 08:17:22;;;;;;;15.83;14.33;;;26.40;99.90;;;;;;5051722;28;20778;-80
2021/06/29 08:19:49;;;;;;;14.37;13.07;;;26.70;99.90;;;;;;5050912;28;20510;-80
2021/06/29 08:22:16;;;;;;;17.90;15.47;;;26.50;99.90;;;;;;5049924;28;20446;-80
2021/06/29 08:24:45;;;;;;;16.17;14.60;;;26.50;99.90;;;;;;5050729;28;20497;-80
2021/06/29 08:27:12;;;;;;;17.80;14.30;;;26.60;99.90;;;;;;5050773;28;20478;-80
2021/06/29 08:29:39;;;;;;;17.30;15.67;;;26.60;99.90;;;;;;5043456;28;20806;-84
2021/06/29 08:32:07;;;;;;;14.93;13.77;;;26.70;99.90;;;;;;5043171;28;20494;-83
2021/06/29 08:34:34;;;;;;;13.40;12.30;;;26.70;99.90;;;;;;5045672;28;20458;-83
2021/06/29 08:37:01;;;;;;;12.53;11.27;;;26.70;99.90;;;;;;5046681;28;20457;-83
2021/06/29 08:39:28;;;;;;;14.00;12.80;;;26.70;99.90;;;;;;5046528;28;20499;-83
2021/06/29 08:41:55;;;;;;;14.17;12.77;;;26.70;99.90;;;;;;5046719;28;20436;-83
2021/06/29 08:44:22;;;;;;;22.60;19.83;;;26.80;99.90;;;;;;5048292;28;20497;-83
2021/06/29 08:46:48;;;;;;;19.70;17.70;;;26.90;99.90;;;;;;5046922;28;20504;-82
2021/06/29 08:49:16;;;;;;;14.97;13.60;;;27.00;99.90;;;;;;5043828;28;20448;-82
2021/06/29 08:51:43;;;;;;;15.83;14.17;;;27.10;99.90;;;;;;5040325;28;20954;-83
2021/06/29 08:54:10;;;;;;;12.03;11.10;;;27.10;99.90;;;;;;5041566;28;20588;-84
2021/06/29 08:56:36;;;;;;;11.93;10.83;;;27.10;99.90;;;;;;5039059;28;20452;-83
2021/06/29 08:59:03;;;;;;;16.10;14.50;;;27.10;99.90;;;;;;5042542;28;20451;-82
2021/06/29 09:01:31;;;;;;;14.43;12.97;;;27.20;99.90;;;;;;5048454;28;20998;-81
2021/06/29 09:03:59;;;;;;;15.23;13.77;;;27.20;99.90;;;;;;5050156;28;20482;-80
2021/06/29 09:06:33;;;;;;;22.90;20.70;;;27.20;99.90;;;;;;5049810;28;20448;-81
2021/06/29 09:09:22;;;;;;;17.63;15.97;;;27.20;99.90;;;;;;5045952;28;20434;-84
2021/06/29 09:11:49;;;;;;;15.43;13.83;;;27.20;99.90;;;;;;5044034;28;20434;-85
2021/06/29 09:14:16;;;;;;;13.00;11.70;;;27.30;99.90;;;;;;5052060;28;20469;-84
2021/06/29 09:16:43;;;;;;;12.80;11.70;;;27.30;99.90;;;;;;5060018;28;20450;-82
2021/06/29 09:19:10;;;;;;;14.10;12.70;;;27.30;99.90;;;;;;5055940;28;20442;-82
2021/06/29 09:21:38;;;;;;;12.47;11.47;;;27.30;99.90;;;;;;5053966;28;20426;-82
2021/06/29 09:24:06;;;;;;;13.00;10.03;;;27.40;99.90;;;;;;5053035;28;20482;-83
2021/06/29 09:26:40;;;;;;;11.77;10.87;;;27.40;99.90;;;;;;5053638;28;20469;-82
2021/06/29 09:29:07;;;;;;;13.80;12.50;;;27.40;99.90;;;;;;5052480;28;20439;-83
2021/06/29 09:31:36;;;;;;;17.97;16.07;;;27.40;99.90;;;;;;5052871;28;20494;-83
2021/06/29 09:34:04;;;;;;;19.17;17.37;;;27.30;99.90;;;;;;5051541;28;20445;-82
2021/06/29 09:36:33;;;;;;;11.47;10.57;;;27.30;99.90;;;;;;5050418;28;20449;-80
2021/06/29 09:39:07;;;;;;;16.33;14.83;;;27.30;99.90;;;;;;5050854;28;20448;-81
2021/06/29 09:41:35;;;;;;;13.70;10.40;;;27.30;99.90;;;;;;5049350;28;20489;-80
2021/06/29 09:44:05;;;;;;;11.87;10.63;;;27.30;99.90;;;;;;5053579;28;20685;-81
2021/06/29 09:46:32;;;;;;;11.73;10.43;;;27.30;99.90;;;;;;5054867;28;20596;-83
2021/06/29 09:49:02;;;;;;;16.27;12.27;;;27.30;99.90;;;;;;5050025;28;20444;-80
2021/06/29 09:51:31;;;;;;;12.27;11.07;;;27.30;99.90;;;;;;5043434;28;20500;-83
2021/06/29 09:54:00;;;;;;;12.83;11.73;;;27.70;99.90;;;;;;5047975;28;20455;-81
2021/06/29 09:56:32;;;;;;;12.20;11.00;;;27.30;99.90;;;;;;5049169;28;20451;-80
2021/06/29 09:59:02;;;;;;;12.30;11.20;;;27.30;99.90;;;;;;5050101;28;20432;-80
2021/06/29 10:01:29;;;;;;;13.37;12.27;;;27.40;99.90;;;;;;5052426;28;20427;-80
2021/06/29 10:03:58;;;;;;;12.37;11.20;;;27.40;99.90;;;;;;5050311;28;20467;-81
2021/06/29 10:06:26;;;;;;;21.77;19.50;;;27.40;99.90;;;;;;5051968;28;20447;-81
2021/06/29 10:08:54;;;;;;;25.33;22.73;;;27.40;99.90;;;;;;5050556;28;20449;-81
2021/06/29 10:11:26;;;;;;;21.17;18.97;;;27.40;99.90;;;;;;5051867;28;20444;-81
2021/06/29 10:13:58;;;;;;;41.30;36.50;;;27.50;99.90;;;;;;5055311;28;20419;-82
2021/06/29 10:16:28;;;;;;;14.90;13.47;;;27.60;99.90;;;;;;5070047;22;20492;-81
2021/06/29 10:19:23;;;;;;;31.53;27.77;;;27.70;99.90;;;;;;5041376;28;20809;-83
2021/06/29 10:21:52;;;;;;;30.90;27.70;;;27.80;99.90;;;;;;5043415;28;20447;-81
2021/06/29 10:24:21;;;;;;;15.47;14.13;;;27.90;99.90;;;;;;5048405;28;20482;-80
2021/06/29 10:26:49;;;;;;;14.20;13.10;;;28.00;99.90;;;;;;5046114;28;20468;-82
2021/06/29 10:29:19;;;;;;;19.90;17.97;;;28.00;99.90;;;;;;5042020;28;20483;-80
2021/06/29 10:31:48;;;;;;;28.53;25.63;;;28.00;99.90;;;;;;5044983;28;20451;-80
2021/06/29 10:34:16;;;;;;;16.70;15.30;;;28.00;99.90;;;;;;5043177;28;20440;-80
2021/06/29 10:36:46;;;;;;;14.30;13.20;;;28.00;99.90;;;;;;5044455;28;20463;-80
2021/06/29 10:39:15;;;;;;;24.83;22.47;;;28.00;99.90;;;;;;5051272;28;20446;-81
2021/06/29 10:41:44;;;;;;;17.20;15.70;;;28.00;99.90;;;;;;5050671;28;20448;-79
2021/06/29 10:44:13;;;;;;;15.20;13.80;;;28.00;99.90;;;;;;5044264;28;20484;-79
2021/06/29 10:46:43;;;;;;;20.83;18.93;;;28.00;99.90;;;;;;5044795;28;21036;-78
2021/06/29 10:49:31;;;;;;;14.17;12.97;;;27.90;99.90;;;;;;5044394;28;20447;-79
2021/06/29 10:51:59;;;;;;;15.97;14.67;;;27.80;99.90;;;;;;5042730;28;20467;-78
2021/06/29 10:54:47;;;;;;;18.70;15.93;;;27.70;99.90;;;;;;5042317;28;20475;-80
2021/06/29 10:57:18;;;;;;;15.77;14.23;;;27.60;99.90;;;;;;5043435;28;20521;-78
2021/06/29 10:59:48;;;;;;;25.10;22.60;;;27.50;99.90;;;;;;5042450;28;20436;-79
2021/06/29 11:02:28;;;;;;;18.73;16.93;;;27.40;99.90;;;;;;5040655;28;20441;-79
2021/06/29 11:04:58;;;;;;;17.23;15.50;;;27.20;99.90;;;;;;5051139;28;20463;-84
2021/06/29 11:07:45;;;;;;;16.00;14.70;;;27.10;99.90;;;;;;5054253;28;20490;-80
2021/06/29 11:10:15;;;;;;;15.70;14.17;;;26.90;99.90;;;;;;5054631;28;20467;-80
2021/06/29 11:12:49;;;;;;;14.27;12.97;;;26.70;99.90;;;;;;5055483;28;20457;-80
2021/06/29 11:15:16;;;;;;;16.83;15.20;;;27.00;99.90;;;;;;5055049;28;20539;-80
2021/06/29 11:18:00;;;;;;;18.17;16.20;;;26.60;99.90;;;;;;5055505;28;20427;-80
2021/06/29 11:20:37;;;;;;;15.80;14.40;;;26.60;99.90;;;;;;5058562;28;20449;-82
2021/06/29 11:23:05;;;;;;;15.73;14.40;;;26.60;99.90;;;;;;5058824;28;20414;-81
2021/06/29 11:25:41;;;;;;;13.23;12.10;;;26.80;99.90;;;;;;5058313;28;20478;-81
2021/06/29 11:28:10;;;;;;;13.53;12.20;;;26.60;99.90;;;;;;5052662;28;20439;-82
2021/06/29 11:31:08;;;;;;;24.87;21.37;;;26.50;99.90;;;;;;5049242;28;20473;-81
2021/06/29 11:33:41;;;;;;;13.00;12.00;;;26.30;99.90;;;;;;5049750;28;20462;-82
2021/06/29 11:36:30;;;;;;;13.20;12.20;;;26.30;99.90;;;;;;5051124;28;20466;-81
2021/06/29 11:38:58;;;;;;;12.70;11.60;;;26.40;99.90;;;;;;5051084;28;20491;-82
2021/06/29 11:41:30;;;;;;;13.50;12.20;;;26.70;99.90;;;;;;5050443;28;20451;-81
2021/06/29 11:44:19;;;;;;;13.37;12.07;;;26.80;99.90;;;;;;5049533;28;20482;-81
2021/06/29 11:46:48;;;;;;;11.43;10.43;;;26.80;99.90;;;;;;5049732;28;20471;-81
2021/06/29 11:49:18;;;;;;;11.83;10.93;;;26.90;99.90;;;;;;5051017;28;20461;-81
2021/06/29 11:51:52;;;;;;;13.93;12.67;;;27.00;99.90;;;;;;5050446;28;20439;-80
2021/06/29 11:54:27;;;;;;;13.03;11.17;;;27.00;99.90;;;;;;5048795;28;20465;-79
2021/06/29 11:56:55;;;;;;;17.00;15.27;;;27.20;99.90;;;;;;5050205;28;20474;-80
2021/06/29 11:59:27;;;;;;;13.53;12.30;;;27.50;99.90;;;;;;5047374;28;20444;-82
2021/06/29 12:02:02;;;;;;;19.03;17.23;;;27.70;99.90;;;;;;5038974;28;20443;-82
2021/06/29 12:04:30;;;;;;;17.60;16.00;;;27.60;99.90;;;;;;5039068;28;20478;-82
2021/06/29 12:07:01;;;;;;;17.53;16.03;;;27.70;99.90;;;;;;5038745;28;20472;-82
2021/06/29 12:09:32;;;;;;;17.10;15.67;;;27.70;99.90;;;;;;5039560;28;20821;-82
2021/06/29 12:12:22;;;;;;;17.10;15.60;;;27.60;99.90;;;;;;5039805;28;20458;-83
2021/06/29 12:14:58;;;;;;;20.70;18.70;;;27.60;99.90;;;;;;5039296;28;20454;-81
2021/06/29 12:17:25;;;;;;;20.17;18.30;;;27.70;99.90;;;;;;5039229;28;20431;-82
2021/06/29 12:19:58;;;;;;;19.80;16.67;;;27.70;99.90;;;;;;5038433;28;20805;-82
2021/06/29 12:22:33;;;;;;;17.77;15.93;;;27.80;99.90;;;;;;5039068;28;20439;-82
2021/06/29 12:25:00;;;;;;;20.80;19.00;;;27.90;99.90;;;;;;5039668;28;20468;-81
2021/06/29 12:27:27;;;;;;;24.40;21.90;;;27.90;99.90;;;;;;5039360;28;20479;-82
2021/06/29 12:29:54;;;;;;;18.47;16.63;;;28.00;99.90;;;;;;5043844;28;20453;-82
2021/06/29 12:32:24;;;;;;;15.53;14.33;;;28.00;99.90;;;;;;5042463;28;20457;-82
2021/06/29 12:34:52;;;;;;;20.17;18.27;;;27.90;99.90;;;;;;5044304;28;20536;-82